Sahuarita, Arizona
Current Conditions -  °F | °C
As of 11:53 AM on Wednesday 26 Nov 2014 (Local Time) from KTUS Reporting Station
Clear Clear  
Wind Chill: 65°   Ceiling: Unl
Heat Index: 65°   Visibility: 10mi
Dew Point:   Wind: 7mph
Humidity: 9%   Direction: 340°NNW
Pressure: 30.29"   Gusts: NA
Location:  31.96°N, 110.96°W
Report Text: KTUS 261853Z 34006KT 10SM CLR 18/M15 A3029 RMK AO2 SLP237 T01831150
Loading
Personal Weather Stations






























Interactive Weather Map New forecast layout! Learn more

10-Day Weather Forecast

Advertisements
Track Severe Weather on mobile